createdAt,value
2018-08-11T00:01:34.590Z,82.80
2018-08-11T00:04:03.119Z,83.08
2018-08-11T00:06:31.633Z,83.13
2018-08-11T00:09:00.173Z,83.14
2018-08-11T00:11:28.676Z,83.22
2018-08-11T00:13:58.320Z,83.19
2018-08-11T00:16:26.800Z,83.33
2018-08-11T00:18:55.373Z,83.28
2018-08-11T00:21:23.930Z,83.08
2018-08-11T00:23:53.077Z,83.42
2018-08-11T00:26:21.558Z,83.27
2018-08-11T00:28:50.140Z,83.11
2018-08-11T00:31:18.656Z,83.54
2018-08-11T00:33:47.261Z,83.68
2018-08-11T00:36:15.749Z,83.63
2018-08-11T00:38:44.254Z,83.31
2018-08-11T00:41:12.810Z,83.46
2018-08-11T00:43:41.335Z,83.83
2018-08-11T00:46:09.867Z,83.53
2018-08-11T00:48:38.431Z,83.40
2018-08-11T00:51:06.967Z,83.68
2018-08-11T00:53:35.582Z,83.67
2018-08-11T00:56:04.086Z,83.81
2018-08-11T00:58:32.737Z,83.70
2018-08-11T01:01:01.266Z,83.75
2018-08-11T01:03:29.755Z,83.99
2018-08-11T01:05:58.261Z,83.43
2018-08-11T01:08:26.764Z,83.12
2018-08-11T01:10:55.279Z,82.73
2018-08-11T01:13:23.798Z,82.88
2018-08-11T01:15:52.314Z,83.12
2018-08-11T01:18:20.818Z,83.05
2018-08-11T01:20:49.415Z,82.94
2018-08-11T01:23:18.010Z,82.68
2018-08-11T01:25:46.511Z,82.86
2018-08-11T01:28:15.075Z,82.98
2018-08-11T01:30:43.622Z,83.08
2018-08-11T01:33:12.148Z,82.65
2018-08-11T01:35:40.697Z,82.81
2018-08-11T01:38:09.857Z,83.61
2018-08-11T01:40:38.734Z,83.03
2018-08-11T01:43:07.309Z,83.41
2018-08-11T01:45:36.096Z,84.13
2018-08-11T01:48:04.726Z,84.64
2018-08-11T01:50:33.249Z,84.63
2018-08-11T01:53:01.726Z,84.74
2018-08-11T01:55:30.241Z,84.86
2018-08-11T01:57:58.702Z,85.27
2018-08-11T02:00:27.280Z,85.13
2018-08-11T02:02:55.736Z,85.10
2018-08-11T02:05:24.277Z,84.73
2018-08-11T02:07:52.762Z,84.45
2018-08-11T02:10:21.717Z,83.81
2018-08-11T02:12:50.205Z,83.09
2018-08-11T02:15:18.977Z,82.52
2018-08-11T02:17:47.550Z,82.28
2018-08-11T02:20:18.323Z,82.00
2018-08-11T02:22:47.892Z,82.10
2018-08-11T02:25:16.385Z,82.14
2018-08-11T02:27:44.917Z,82.14
2018-08-11T02:30:15.332Z,82.34
2018-08-11T02:32:43.902Z,81.71
2018-08-11T02:35:13.074Z,81.90
2018-08-11T02:37:42.438Z,81.70
2018-08-11T02:40:12.666Z,81.53
2018-08-11T02:42:41.157Z,81.87
2018-08-11T02:45:11.486Z,81.04
2018-08-11T02:47:40.064Z,80.77
2018-08-11T02:50:10.326Z,80.59
2018-08-11T02:52:39.484Z,80.65
2018-08-11T02:55:08.051Z,80.57
2018-08-11T02:57:36.513Z,80.50
2018-08-11T03:00:06.961Z,81.20
2018-08-11T03:02:35.570Z,81.58
2018-08-11T03:05:04.142Z,81.19
2018-08-11T03:07:32.649Z,81.30
2018-08-11T03:10:01.162Z,81.23
2018-08-11T03:12:29.657Z,82.52
2018-08-11T03:14:58.160Z,83.58
2018-08-11T03:17:26.642Z,83.17
2018-08-11T03:19:55.135Z,83.77
2018-08-11T03:22:23.636Z,83.97
2018-08-11T03:24:52.121Z,84.16
2018-08-11T03:27:20.606Z,84.14
2018-08-11T03:29:49.077Z,84.25
2018-08-11T03:32:17.560Z,84.29
2018-08-11T03:34:46.057Z,84.66
2018-08-11T03:37:34.602Z,84.81
2018-08-11T03:40:03.326Z,84.43
2018-08-11T03:42:31.795Z,84.80
2018-08-11T03:45:00.272Z,85.94
2018-08-11T03:47:28.811Z,86.49
2018-08-11T03:49:57.273Z,86.12
2018-08-11T03:52:26.320Z,85.91
2018-08-11T03:54:54.750Z,85.19
2018-08-11T03:57:23.261Z,84.32
2018-08-11T03:59:51.750Z,83.71
2018-08-11T04:02:20.274Z,83.06
2018-08-11T04:04:48.721Z,82.87
2018-08-11T04:07:17.208Z,82.53
2018-08-11T04:09:45.674Z,82.86
2018-08-11T04:12:14.219Z,82.62
2018-08-11T04:14:45.882Z,82.64
2018-08-11T04:17:14.417Z,82.33
2018-08-11T04:19:42.904Z,82.04
2018-08-11T04:22:11.488Z,82.06
2018-08-11T04:24:39.992Z,81.53
2018-08-11T04:27:08.577Z,81.54
2018-08-11T04:29:37.039Z,80.91
2018-08-11T04:32:05.555Z,80.49
2018-08-11T04:34:34.031Z,79.31
2018-08-11T04:37:02.702Z,78.67
2018-08-11T04:39:31.158Z,78.24
2018-08-11T04:41:59.723Z,78.27
2018-08-11T04:44:28.281Z,77.48
2018-08-11T04:46:56.782Z,76.74
2018-08-11T04:49:25.325Z,76.23
2018-08-11T04:51:53.814Z,76.26
2018-08-11T04:54:22.298Z,75.69
2018-08-11T04:56:50.800Z,75.62
2018-08-11T04:59:19.245Z,75.43
2018-08-11T05:01:47.762Z,75.87
2018-08-11T05:04:16.226Z,75.75
2018-08-11T05:06:44.706Z,75.97
2018-08-11T05:09:13.154Z,76.24
2018-08-11T05:11:41.633Z,75.61
2018-08-11T05:14:10.114Z,75.52
2018-08-11T05:16:38.617Z,74.96
2018-08-11T05:19:07.218Z,75.25
2018-08-11T05:21:35.711Z,75.76
2018-08-11T05:24:04.190Z,75.49
2018-08-11T05:26:32.788Z,75.20
2018-08-11T05:29:01.501Z,75.42
2018-08-11T05:31:30.183Z,74.58
2018-08-11T05:33:58.750Z,74.45
2018-08-11T05:36:27.302Z,74.66
2018-08-11T05:38:55.818Z,75.21
2018-08-11T05:41:24.329Z,75.25
2018-08-11T05:43:52.841Z,74.57
2018-08-11T05:46:21.401Z,74.77
2018-08-11T05:48:49.879Z,73.79
2018-08-11T05:51:18.343Z,73.71
2018-08-11T05:53:46.841Z,74.21
2018-08-11T05:56:15.313Z,74.17
2018-08-11T05:58:43.842Z,74.73
2018-08-11T06:01:12.322Z,75.13
2018-08-11T06:03:40.839Z,75.50
2018-08-11T06:06:09.298Z,75.06
2018-08-11T06:08:37.788Z,74.78
2018-08-11T06:11:06.626Z,75.41
2018-08-11T06:13:35.106Z,76.25
2018-08-11T06:16:03.617Z,75.81
2018-08-11T06:18:32.265Z,76.20
2018-08-11T06:21:00.862Z,75.19
2018-08-11T06:23:29.384Z,76.73
2018-08-11T06:25:57.871Z,76.80
2018-08-11T06:28:26.399Z,75.34
2018-08-11T06:30:55.007Z,74.09
2018-08-11T06:33:23.507Z,73.60
2018-08-11T06:35:51.979Z,74.25
2018-08-11T06:38:20.492Z,74.06
2018-08-11T06:40:49.138Z,75.49
2018-08-11T06:43:17.534Z,76.15
2018-08-11T06:45:46.039Z,75.97
2018-08-11T06:48:14.506Z,75.16
2018-08-11T06:50:42.952Z,73.64
2018-08-11T06:53:11.414Z,73.45
2018-08-11T06:55:40.714Z,73.64
2018-08-11T06:58:09.202Z,72.27
2018-08-11T07:00:37.644Z,71.38
2018-08-11T07:03:06.141Z,72.09
2018-08-11T07:05:34.618Z,72.06
2018-08-11T07:08:03.130Z,71.75
2018-08-11T07:10:31.610Z,70.27
2018-08-11T07:13:00.110Z,71.23
2018-08-11T07:15:28.591Z,71.12
2018-08-11T07:17:57.070Z,69.53
2018-08-11T07:20:25.628Z,67.92
2018-08-11T07:22:54.307Z,66.34
2018-08-11T07:25:22.789Z,65.14
2018-08-11T07:27:51.566Z,64.97
2018-08-11T07:30:20.265Z,61.83
2018-08-11T07:32:48.745Z,59.17
2018-08-11T07:35:17.250Z,60.17
2018-08-11T07:37:46.252Z,56.91
2018-08-11T07:40:14.773Z,49.17
2018-08-11T07:42:43.330Z,43.67
2018-08-11T07:45:11.839Z,44.36
2018-08-11T07:47:40.354Z,48.56
2018-08-11T07:50:08.858Z,43.53
2018-08-11T07:52:37.310Z,38.09
2018-08-11T07:55:06.053Z,37.27
2018-08-11T07:57:34.525Z,37.70
2018-08-11T08:00:03.105Z,37.35
2018-08-11T08:02:31.622Z,37.51
2018-08-11T08:05:00.153Z,35.58
2018-08-11T08:07:28.634Z,35.58
2018-08-11T08:09:57.209Z,36.08
2018-08-11T08:12:25.789Z,34.83
2018-08-11T08:14:54.316Z,34.03
2018-08-11T08:17:22.830Z,30.38
2018-08-11T08:19:51.390Z,30.99
2018-08-11T08:22:19.895Z,33.34
2018-08-11T08:24:48.410Z,33.63
2018-08-11T08:27:16.905Z,34.44
2018-08-11T08:29:45.421Z,32.87
2018-08-11T08:32:13.975Z,34.29
2018-08-11T08:34:42.519Z,34.18
2018-08-11T08:37:11.005Z,32.24
2018-08-11T08:39:39.578Z,31.95
2018-08-11T08:42:08.325Z,30.67
2018-08-11T08:44:36.872Z,29.27
2018-08-11T08:56:16.076Z,27.01
2018-08-11T08:58:44.660Z,23.95
2018-08-11T09:01:13.145Z,24.24
2018-08-11T09:03:41.984Z,27.19
2018-08-11T09:06:10.544Z,32.75
2018-08-11T09:08:39.134Z,32.73
2018-08-11T09:11:07.815Z,33.83
2018-08-11T09:13:36.343Z,31.69
2018-08-11T09:16:04.885Z,28.98
2018-08-11T09:18:33.559Z,28.84
2018-08-11T09:21:04.912Z,26.89
2018-08-11T09:23:34.197Z,25.81
2018-08-11T09:26:02.843Z,27.13
2018-08-11T09:28:31.351Z,26.40
2018-08-11T09:31:00.007Z,24.93
2018-08-11T09:33:28.484Z,25.42
2018-08-11T09:35:57.022Z,31.09
2018-08-11T09:38:25.722Z,37.78
2018-08-11T09:40:56.366Z,37.12
2018-08-11T09:43:24.952Z,32.16
2018-08-11T09:45:53.517Z,29.29
2018-08-11T09:48:22.052Z,32.89
2018-08-11T09:50:50.643Z,34.18
2018-08-11T09:53:19.136Z,35.16
2018-08-11T09:55:47.756Z,35.71
2018-08-11T09:58:16.282Z,36.10
2018-08-11T10:00:53.891Z,36.16
2018-08-11T10:03:22.842Z,37.40
2018-08-11T10:05:51.482Z,38.13
2018-08-11T10:08:20.057Z,40.87
2018-08-11T10:10:50.342Z,39.14
2018-08-11T10:13:19.574Z,35.41
2018-08-11T10:15:48.351Z,35.75
2018-08-11T10:18:16.861Z,36.87
2018-08-11T10:20:45.579Z,33.40
2018-08-11T10:23:14.231Z,34.64
2018-08-11T10:25:42.810Z,36.50
2018-08-11T10:28:12.250Z,37.13
2018-08-11T10:30:40.788Z,36.16
2018-08-11T10:33:09.288Z,36.11
2018-08-11T10:35:37.826Z,35.54
2018-08-11T10:38:06.289Z,32.60
2018-08-11T10:40:34.786Z,31.89
2018-08-11T10:43:03.306Z,31.19
2018-08-11T10:45:31.894Z,31.10
2018-08-11T10:48:00.381Z,33.49
2018-08-11T10:50:28.892Z,30.36
2018-08-11T10:52:57.376Z,25.85
2018-08-11T10:55:25.912Z,25.67
2018-08-11T10:57:54.421Z,23.38
2018-08-11T11:00:22.941Z,22.67
2018-08-11T11:02:51.466Z,21.31
2018-08-11T11:05:19.982Z,19.40
2018-08-11T11:07:48.465Z,20.01
2018-08-11T11:10:17.002Z,21.38
2018-08-11T11:12:45.452Z,20.92
2018-08-11T11:15:13.986Z,21.21
2018-08-11T11:17:42.460Z,21.05
2018-08-11T11:20:12.299Z,22.04
2018-08-11T11:22:41.531Z,23.75
2018-08-11T11:25:10.117Z,25.42
2018-08-11T11:27:39.306Z,27.93
2018-08-11T11:30:08.222Z,28.90
2018-08-11T11:32:37.730Z,29.19
2018-08-11T11:35:06.414Z,28.90
2018-08-11T11:37:35.018Z,30.33
2018-08-11T11:40:03.790Z,32.52
2018-08-11T11:42:32.382Z,33.94
2018-08-11T11:45:00.973Z,33.51
2018-08-11T11:47:29.631Z,33.50
2018-08-11T11:49:58.272Z,32.42
2018-08-11T11:52:27.113Z,32.62
2018-08-11T11:54:59.529Z,34.42
2018-08-11T11:57:28.822Z,36.04
2018-08-11T11:59:57.685Z,35.92
2018-08-11T12:02:26.425Z,36.52
2018-08-11T12:04:55.459Z,36.34
2018-08-11T12:07:27.047Z,33.68
2018-08-11T12:09:55.670Z,30.77
2018-08-11T12:12:24.400Z,28.46
2018-08-11T12:14:53.277Z,28.35
2018-08-11T12:17:22.894Z,26.81
2018-08-11T12:20:04.553Z,25.92
2018-08-11T12:22:33.130Z,23.87
2018-08-11T12:27:52.743Z,25.55
2018-08-11T12:30:21.395Z,24.26
2018-08-11T12:32:49.972Z,22.12
2018-08-11T12:35:18.552Z,24.00
2018-08-11T12:37:47.326Z,26.31
2018-08-11T12:40:15.988Z,27.24
2018-08-11T12:42:44.535Z,27.93
2018-08-11T12:45:13.016Z,30.17
2018-08-11T12:47:41.665Z,29.99
2018-08-11T12:50:10.378Z,29.37
2018-08-11T12:52:38.902Z,26.43
2018-08-11T12:55:07.469Z,24.85
2018-08-11T12:57:36.013Z,24.42
2018-08-11T13:00:05.420Z,24.96
2018-08-11T13:02:33.938Z,26.16
2018-08-11T13:05:02.468Z,27.73
2018-08-11T13:07:31.012Z,27.56
2018-08-11T13:10:00.168Z,24.53
2018-08-11T13:12:29.053Z,22.79
2018-08-11T13:14:57.789Z,23.19
2018-08-11T13:17:26.618Z,24.03
2018-08-11T13:19:55.168Z,21.95
2018-08-11T13:22:24.441Z,21.63
2018-08-11T13:24:53.324Z,20.87
2018-08-11T13:27:21.989Z,23.14
2018-08-11T13:29:51.135Z,23.20
2018-08-11T13:32:19.976Z,22.95
2018-08-11T13:34:48.512Z,22.83
2018-08-11T13:37:17.049Z,22.41
2018-08-11T13:39:50.733Z,21.88
2018-08-11T13:42:19.654Z,22.42
2018-08-11T13:44:48.187Z,22.46
2018-08-11T13:47:16.950Z,22.86
2018-08-11T13:49:45.507Z,22.57
2018-08-11T13:52:14.031Z,22.80
2018-08-11T13:54:42.533Z,22.93
2018-08-11T13:57:11.046Z,21.33
2018-08-11T13:59:39.517Z,22.08
2018-08-11T14:02:08.069Z,23.25
2018-08-11T14:04:36.545Z,23.56
2018-08-11T14:07:05.149Z,23.41
2018-08-11T14:09:33.617Z,22.56
2018-08-11T14:12:02.148Z,21.52
2018-08-11T14:14:30.878Z,20.84
2018-08-11T14:16:59.754Z,20.31
2018-08-11T14:19:28.333Z,21.52
2018-08-11T14:21:56.856Z,21.42
2018-08-11T14:24:25.379Z,21.66
2018-08-11T14:26:53.896Z,21.62
2018-08-11T14:29:22.385Z,22.51
2018-08-11T14:31:50.880Z,22.30
2018-08-11T14:34:19.448Z,21.80
2018-08-11T14:36:47.920Z,21.73
2018-08-11T14:39:16.505Z,21.78
2018-08-11T14:41:45.041Z,19.84
2018-08-11T14:44:13.583Z,20.58
2018-08-11T14:46:42.117Z,20.75
2018-08-11T14:49:10.580Z,21.42
2018-08-11T14:51:39.037Z,21.37
2018-08-11T14:54:07.585Z,20.56
2018-08-11T14:56:36.061Z,20.26
2018-08-11T14:59:04.561Z,19.88
2018-08-11T15:01:33.105Z,19.86
2018-08-11T15:04:01.585Z,19.95
2018-08-11T15:06:30.039Z,19.27
2018-08-11T15:08:58.607Z,19.77
2018-08-11T15:11:27.109Z,20.14
2018-08-11T15:13:55.617Z,19.72
2018-08-11T15:16:24.166Z,20.87
2018-08-11T15:18:52.599Z,22.16
2018-08-11T15:21:21.068Z,21.94
2018-08-11T15:23:49.574Z,20.77
2018-08-11T15:26:18.019Z,22.90
2018-08-11T15:28:46.525Z,23.64
2018-08-11T15:31:14.968Z,23.46
2018-08-11T15:33:43.505Z,23.19
2018-08-11T15:36:11.981Z,21.17
2018-08-11T15:38:40.469Z,20.53
2018-08-11T15:41:08.925Z,20.07
2018-08-11T15:43:37.405Z,19.47
2018-08-11T15:46:05.877Z,18.84
2018-08-11T15:48:34.457Z,19.33
2018-08-11T15:51:02.931Z,20.36
2018-08-11T15:53:31.436Z,19.59
2018-08-11T15:55:59.869Z,20.24
2018-08-11T15:58:28.345Z,20.23
2018-08-11T16:00:56.828Z,20.19
2018-08-11T16:03:25.337Z,19.89
2018-08-11T16:05:53.794Z,19.20
2018-08-11T16:08:22.301Z,19.11
2018-08-11T16:10:50.764Z,19.43
2018-08-11T16:13:19.225Z,18.68
2018-08-11T16:15:47.678Z,19.71
2018-08-11T16:18:16.197Z,20.54
2018-08-11T16:20:44.674Z,20.58
2018-08-11T16:23:13.113Z,19.92
2018-08-11T16:25:41.573Z,19.62
2018-08-11T16:28:10.029Z,19.77
2018-08-11T16:30:38.481Z,19.98
2018-08-11T16:33:07.113Z,20.82
2018-08-11T16:35:35.580Z,19.39
2018-08-11T16:38:04.017Z,20.23
2018-08-11T16:40:32.498Z,20.60
2018-08-11T16:43:00.957Z,20.44
2018-08-11T16:45:29.425Z,20.83
2018-08-11T16:47:57.934Z,21.11
2018-08-11T16:50:26.360Z,22.87
2018-08-11T16:52:54.828Z,21.52
2018-08-11T16:55:23.304Z,22.02
2018-08-11T16:57:51.760Z,22.21
2018-08-11T17:00:20.266Z,22.13
2018-08-11T17:02:48.712Z,20.88
2018-08-11T17:05:17.185Z,21.58
2018-08-11T17:07:45.613Z,21.73
2018-08-11T17:10:14.069Z,22.21
2018-08-11T17:12:42.508Z,23.08
2018-08-11T17:15:11.308Z,22.40
2018-08-11T17:17:39.801Z,23.26
2018-08-11T17:20:08.685Z,22.67
2018-08-11T17:22:37.152Z,22.98
2018-08-11T17:25:05.705Z,23.80
2018-08-11T17:27:34.416Z,24.24
2018-08-11T17:30:02.898Z,24.65
2018-08-11T17:32:31.401Z,24.10
2018-08-11T17:34:59.904Z,23.53
2018-08-11T17:37:28.372Z,25.37
2018-08-11T17:39:56.849Z,24.66
2018-08-11T17:42:25.384Z,25.99
2018-08-11T17:44:53.844Z,26.07
2018-08-11T17:47:22.285Z,26.12
2018-08-11T17:49:50.809Z,26.51
2018-08-11T17:52:19.286Z,27.56
2018-08-11T17:54:47.795Z,27.01
2018-08-11T17:57:16.197Z,28.24
2018-08-11T17:59:44.677Z,28.52
2018-08-11T18:02:13.124Z,30.06
2018-08-11T18:04:41.601Z,30.27
2018-08-11T18:07:10.073Z,31.24
2018-08-11T18:09:38.576Z,31.25
2018-08-11T18:12:07.393Z,31.75
2018-08-11T18:14:35.891Z,32.00
2018-08-11T18:17:04.556Z,33.64
2018-08-11T18:19:33.072Z,33.40
2018-08-11T18:22:01.704Z,33.59
2018-08-11T18:24:30.160Z,34.39
2018-08-11T18:26:58.650Z,34.97
2018-08-11T18:29:27.097Z,35.69
2018-08-11T18:31:55.597Z,35.23
2018-08-11T18:34:24.054Z,35.53
2018-08-11T18:36:52.533Z,35.77
2018-08-11T18:39:21.026Z,35.81
2018-08-11T18:41:49.480Z,36.45
2018-08-11T18:44:17.915Z,36.24
2018-08-11T18:46:46.380Z,37.26
2018-08-11T18:49:15.039Z,38.77
2018-08-11T18:51:43.759Z,38.95
2018-08-11T18:54:12.248Z,38.83
2018-08-11T18:56:40.768Z,38.97
2018-08-11T18:59:09.324Z,39.69
2018-08-11T19:01:37.788Z,40.20
2018-08-11T19:04:06.500Z,42.49
2018-08-11T19:06:35.041Z,42.26
2018-08-11T19:09:03.759Z,41.53
2018-08-11T19:11:32.252Z,42.83
2018-08-11T19:14:00.790Z,43.29
2018-08-11T19:16:29.293Z,44.23
2018-08-11T19:18:57.799Z,42.96
2018-08-11T19:21:26.276Z,43.63
2018-08-11T19:23:54.732Z,44.95
2018-08-11T19:26:23.297Z,44.42
2018-08-11T19:28:51.795Z,44.73
2018-08-11T19:31:20.412Z,47.20
2018-08-11T19:33:48.924Z,44.92
2018-08-11T19:36:17.408Z,47.08
2018-08-11T19:38:45.949Z,48.49
2018-08-11T19:41:14.519Z,48.62
2018-08-11T19:43:43.032Z,47.76
2018-08-11T19:46:11.671Z,48.34
2018-08-11T19:48:40.222Z,49.29
2018-08-11T19:51:08.786Z,50.05
2018-08-11T19:53:37.310Z,50.17
2018-08-11T19:56:05.872Z,50.65
2018-08-11T19:58:34.348Z,51.11
2018-08-11T20:01:02.959Z,52.24
2018-08-11T20:03:32.346Z,52.96
2018-08-11T20:06:00.844Z,53.91
2018-08-11T20:08:29.384Z,54.96
2018-08-11T20:10:57.929Z,55.12
2018-08-11T20:13:26.444Z,55.53
2018-08-11T20:15:55.039Z,55.76
2018-08-11T20:18:23.564Z,56.24
2018-08-11T20:20:52.091Z,55.90
2018-08-11T20:23:20.624Z,57.05
2018-08-11T20:25:49.157Z,56.11
2018-08-11T20:28:17.706Z,53.95
2018-08-11T20:30:46.365Z,53.45
2018-08-11T20:33:14.954Z,52.20
2018-08-11T20:35:44.167Z,52.92
2018-08-11T20:38:12.799Z,53.88
2018-08-11T20:40:41.301Z,53.78
2018-08-11T20:43:10.066Z,54.60
2018-08-11T20:45:38.618Z,55.04
2018-08-11T20:48:07.173Z,54.49
2018-08-11T20:50:35.706Z,53.67
2018-08-11T20:53:04.315Z,53.67
2018-08-11T20:55:32.806Z,52.90
2018-08-11T20:58:01.380Z,53.22
2018-08-11T21:00:29.899Z,53.92
2018-08-11T21:02:58.468Z,54.63
2018-08-11T21:05:26.996Z,55.14
2018-08-11T21:07:55.537Z,54.77
2018-08-11T21:10:24.567Z,54.39
2018-08-11T21:12:53.602Z,54.71
2018-08-11T21:15:22.202Z,55.40
2018-08-11T21:17:50.757Z,55.62
2018-08-11T21:20:19.243Z,56.68
2018-08-11T21:22:47.784Z,57.52
2018-08-11T21:25:16.364Z,58.61
2018-08-11T21:27:44.925Z,57.73
2018-08-11T21:30:14.814Z,57.72
2018-08-11T21:32:43.580Z,57.77
2018-08-11T21:35:12.315Z,58.04
2018-08-11T21:37:40.849Z,58.42
2018-08-11T21:40:12.754Z,57.83
2018-08-11T21:42:41.717Z,57.58
2018-08-11T21:45:10.546Z,58.21
2018-08-11T21:47:39.777Z,58.67
2018-08-11T21:50:08.866Z,59.03
2018-08-11T21:52:38.046Z,59.77
2018-08-11T21:55:07.202Z,59.60
2018-08-11T21:57:36.480Z,59.89
2018-08-11T22:00:14.893Z,59.06
2018-08-11T22:02:43.529Z,57.77
2018-08-11T22:05:12.055Z,58.10
2018-08-11T22:07:40.575Z,59.04
2018-08-11T22:10:09.133Z,59.83
2018-08-11T22:12:37.669Z,59.82
2018-08-11T22:15:06.226Z,60.16
2018-08-11T22:17:34.741Z,60.20
2018-08-11T22:20:03.297Z,60.39
2018-08-11T22:22:31.881Z,60.54
2018-08-11T22:25:00.358Z,60.54
2018-08-11T22:27:28.909Z,60.15
2018-08-11T22:29:57.486Z,60.51
2018-08-11T22:32:27.025Z,60.85
2018-08-11T22:34:55.556Z,60.36
2018-08-11T22:37:24.100Z,60.45
2018-08-11T22:39:52.628Z,60.64
2018-08-11T22:42:21.154Z,60.97
2018-08-11T22:44:49.685Z,60.99
2018-08-11T22:47:18.271Z,61.40
2018-08-11T22:49:46.734Z,62.28
2018-08-11T22:52:15.385Z,62.81
2018-08-11T22:54:44.077Z,63.47
2018-08-11T22:57:12.857Z,63.31
2018-08-11T22:59:41.687Z,63.29
2018-08-11T23:02:10.512Z,63.58
2018-08-11T23:04:39.297Z,63.47
2018-08-11T23:07:08.234Z,63.79
2018-08-11T23:09:37.278Z,63.55
2018-08-11T23:12:06.116Z,63.14
2018-08-11T23:14:34.900Z,63.31
2018-08-11T23:17:03.714Z,62.74
2018-08-11T23:19:32.485Z,62.68
2018-08-11T23:22:01.162Z,63.19
2018-08-11T23:24:29.884Z,64.03
2018-08-11T23:26:58.389Z,63.73
2018-08-11T23:29:27.808Z,64.26
2018-08-11T23:31:56.693Z,63.87
2018-08-11T23:34:25.181Z,63.09
2018-08-11T23:36:53.877Z,62.80
2018-08-11T23:39:22.496Z,63.71
2018-08-11T23:41:51.241Z,64.05
2018-08-11T23:44:20.096Z,65.07
2018-08-11T23:46:48.930Z,66.41
2018-08-11T23:49:17.760Z,66.64
2018-08-11T23:51:46.329Z,66.49
2018-08-11T23:54:14.909Z,67.09
2018-08-11T23:56:43.590Z,67.57
2018-08-11T23:59:12.134Z,66.29
